• Join FlightAware (Why Join?)
  • Login
  • US Flag 
07:28AM EDT


 

Airport Tracker/Info


-or-


 

Live Flight TrackerFlight Track Log ✈ SUB1290 ✈ 22-Apr-2013 ✈ KOMA - KCVG

Flight Track Log - Related Links

Times and Time Zones

All times are in EDT time to prevent confusion due to time zone crossing. See the SUB1290 flight status page for this flight to view local times or setup timezone preferences in your user account.

Time Position Orientation Groundspeed Altitude Reporting Facility
EDT Latitude Longitude Course Direction KTS MPH feet Rate Location/Type
12:04AM 41.3086 -95.9069 North 116 133 1,700  Level Minneapolis Center
12:05AM 41.3375 -95.9036 North 96 110 3,300 1,440 Climbing Minneapolis Center
12:06AM 41.3628 -95.8956 13° North 103 119 4,500 1,200 Climbing Minneapolis Center
12:07AM 41.3747 -95.8589 67° East 124 143 5,700 1,080 Climbing Minneapolis Center
12:08AM 41.3742 -95.8214 91° East 149 171 6,500 900 Climbing Minneapolis Center
12:09AM 41.3764 -95.7628 87° East 157 181 7,400 840 Climbing Minneapolis Center
12:10AM 41.3808 -95.7039 84° East 161 185 8,300 840 Climbing Minneapolis Center
12:11AM 41.3844 -95.6292 86° East 159 183 9,400 840 Climbing Minneapolis Center
12:12AM 41.3872 -95.5672 87° East 162 186 10,200 780 Climbing Minneapolis Center
12:13AM 41.3753 -95.5053 104° East 168 193 11,100 420 Climbing Minneapolis Center
12:14AM 41.3628 -95.4369 104° East 178 205 11,100  Level Minneapolis Center
12:15AM 41.3483 -95.3569 103° East 198 228 11,100  Level Minneapolis Center
12:16AM 41.3342 -95.2761 103° East 213 245 11,200  Climbing Minneapolis Center
12:17AM 41.3194 -95.1906 103° East 229 264 11,100  Descending Minneapolis Center
12:18AM 41.3008 -95.1081 107° East 233 268 11,200  Climbing Minneapolis Center
12:19AM 41.2836 -95.0075 103° East 233 268 11,100  Descending Minneapolis Center
12:20AM 41.2681 -94.9267 104° East 229 264 11,200  Climbing Minneapolis Center
12:21AM 41.2572 -94.8419 100° East 231 266 11,200  Level Minneapolis Center
12:22AM 41.2472 -94.7572 99° East 232 267 11,200 -60 Level Minneapolis Center
12:23AM 41.2372 -94.6703 99° East 236 272 11,100  Descending Minneapolis Center
12:24AM 41.2208 -94.5881 105° East 232 267 11,200  Climbing Minneapolis Center
12:25AM 41.2050 -94.5006 103° East 233 268 11,100 -60 Descending Minneapolis Center
12:26AM 41.1892 -94.4178 104° East 232 267 11,100 -120 Level Minneapolis Center
12:27AM 41.1761 -94.3336 102° East 234 269 10,900 -60 Descending Minneapolis Center
12:28AM 41.1661 -94.2425 98° East 232 267 11,000  Climbing Minneapolis Center
12:29AM 41.1519 -94.1625 103° East 226 260 11,000  Level Minneapolis Center
12:30AM 41.1344 -94.0828 106° East 227 261 11,000  Level Minneapolis Center
12:31AM 41.1147 -94.0050 109° East 224 258 11,000  Level Minneapolis Center
12:32AM 41.1011 -93.9231 102° East 227 261 11,000  Level Minneapolis Center
12:33AM 41.0844 -93.8436 106° East 226 260 11,100 60 Climbing Minneapolis Center
12:34AM 41.0703 -93.7561 102° East 226 260 11,200  Climbing Minneapolis Center
12:35AM 41.0567 -93.6742 102° East 228 262 11,100 -120 Descending Minneapolis Center
12:36AM 41.0372 -93.5933 108° East 231 266 11,000  Descending Minneapolis Center
12:37AM 41.0228 -93.5114 103° East 229 264 11,100  Climbing Minneapolis Center
12:38AM 41.0147 -93.4281 97° East 230 265 11,100 -60 Level Minneapolis Center
12:39AM 41.0003 -93.3411 102° East 226 260 11,000 -60 Descending Minneapolis Center
12:40AM 40.9853 -93.2608 104° East 225 259 11,000  Level Minneapolis Center
12:41AM 40.9708 -93.1808 103° East 224 258 11,000  Level Minneapolis Center
12:42AM 40.9561 -93.1036 104° East 226 260 11,000  Level Minneapolis Center
12:43AM 40.9400 -93.0211 104° East 225 259 11,100  Climbing Minneapolis Center
12:44AM 40.9239 -92.9406 105° East 226 260 11,100  Level Minneapolis Center
12:45AM 40.9133 -92.8575 100° East 229 264 11,100  Level Minneapolis Center
12:46AM 40.9086 -92.8253 101° East 231 266 11,100  Level Chicago Center
12:47AM 40.8878 -92.7292 106° East 228 262 11,100  Level Chicago Center
12:48AM 40.8669 -92.6539 110° East 222 255 11,100  Level Chicago Center
12:49AM 40.8497 -92.5594 104° East 222 255 11,100 -60 Level Chicago Center
12:50AM 40.8286 -92.4897 112° Southeast 210 242 11,000 -60 Descending Chicago Center
12:51AM 40.8097 -92.4228 110° East 200 230 11,000 -120 Level Chicago Center
12:52AM 40.7969 -92.3533 104° East 195 224 10,800 -480 Descending Chicago Center
12:53AM 40.7856 -92.2744 101° East 215 247 10,100 -660 Descending Chicago Center
12:54AM 40.7733 -92.1925 101° East 227 261 9,500 -600 Descending Chicago Center
12:55AM 40.7625 -92.1056 99° East 238 274 8,900 -480 Descending Chicago Center
12:56AM 40.7494 -92.0208 101° East 238 274 8,600 -540 Descending Chicago Center
12:57AM 40.7339 -91.9397 104° East 232 267 7,900 -660 Descending Chicago Center
12:58AM 40.7181 -91.8575 104° East 232 267 7,300 -420 Descending Kansas City Center
12:59AM 40.7008 -91.7767 106° East 231 266 7,100 -240 Descending Chicago Center
12:59AM 40.7008 -91.7767 106° East 232 267 7,100  Level Kansas City Center
01:00AM 40.6828 -91.7008 107° East 223 257 7,100  Level Chicago Center
01:01AM 40.6650 -91.6264 107° East 217 250 7,200  Climbing Chicago Center
01:02AM 40.6497 -91.5489 105° East 219 252 7,200  Level Chicago Center
01:03AM 40.6311 -91.4547 105° East 222 255 7,200  Level Chicago Center
01:04AM 40.6206 -91.3717 99° East 229 264 7,200  Level Chicago Center
01:05AM 40.6106 -91.2922 99° East 228 262 7,200  Level Chicago Center
01:06AM 40.5906 -91.2114 108° East 229 264 7,200 -60 Level Chicago Center
01:07AM 40.5742 -91.1350 106° East 223 257 7,100 -60 Descending Chicago Center
01:08AM 40.5581 -91.0597 106° East 217 250 7,100 -60 Level Chicago Center
01:09AM 40.5417 -90.9853 106° East 215 247 7,000  Descending Chicago Center
01:10AM 40.5286 -90.9128 103° East 210 242 7,200 60 Climbing Chicago Center
01:11AM 40.5125 -90.8414 107° East 205 236 7,200 -60 Level Chicago Center
01:12AM 40.5028 -90.7656 100° East 210 242 7,100  Descending Chicago Center
01:13AM 40.4858 -90.6894 106° East 213 245 7,200  Climbing Chicago Center
01:14AM 40.4725 -90.6161 103° East 208 239 7,100 -60 Descending Chicago Center
01:15AM 40.4628 -90.5542 102° East 214 246 7,100  Level Chicago Center
01:16AM 40.4406 -90.4833 112° Southeast 211 243 7,100 -60 Level Chicago Center
01:17AM 40.4219 -90.4100 108° East 211 243 7,000  Descending Chicago Center
01:18AM 40.4069 -90.3347 105° East 213 245 7,200  Climbing Chicago Center
01:19AM 40.3950 -90.2533 101° East 223 257 7,100 -120 Descending Chicago Center
01:20AM 40.3811 -90.1706 102° East 230 265 7,000  Descending Chicago Center
01:21AM 40.3603 -90.0939 110° East 227 261 7,200  Climbing Chicago Center
01:22AM 40.3411 -90.0161 108° East 226 260 7,100  Descending Chicago Center
01:23AM 40.3247 -89.9333 105° East 230 265 7,200 60 Climbing Chicago Center
01:24AM 40.3122 -89.8500 101° East 233 268 7,300 -120 Climbing Chicago Center
01:25AM 40.2983 -89.7667 102° East 234 269 7,000 -180 Descending Chicago Center
01:26AM 40.2769 -89.6889 110° East 231 266 7,000  Level Chicago Center
01:27AM 40.2531 -89.5981 109° East 223 257 7,100 60 Climbing Chicago Center
01:28AM 40.2364 -89.5194 105° East 224 258 7,200  Climbing Chicago Center
01:29AM 40.2164 -89.4442 109° East 221 254 7,200 -60 Level Chicago Center
01:30AM 40.1972 -89.3694 109° East 219 252 7,100 -60 Descending Chicago Center
01:31AM 40.1822 -89.2956 105° East 214 246 7,100 -60 Level Chicago Center
01:32AM 40.1653 -89.2247 107° East 207 238 7,000  Descending Chicago Center
01:33AM 40.1519 -89.1533 104° East 205 236 7,200 60 Climbing Chicago Center
01:34AM 40.1353 -89.0828 107° East 204 235 7,200 -60 Level Chicago Center
01:35AM 40.1203 -89.0058 104° East 212 244 7,100 -120 Descending Chicago Center
01:35AM 40.1164 -88.9903 108° East 215 247 7,100  Level Kansas City Center
01:36AM 40.1003 -88.9136 105° East 220 253 7,100  Level Kansas City Center
01:37AM 40.0819 -88.8386 108° East 218 251 7,200  Climbing Kansas City Center
01:38AM 40.0611 -88.7622 110° East 222 255 7,200 -60 Level Kansas City Center
01:39AM 40.0431 -88.6842 107° East 224 258 7,100 -120 Descending Kansas City Center
01:40AM 40.0275 -88.6044 104° East 225 259 7,000  Descending Kansas City Center
01:41AM 40.0119 -88.5269 105° East 225 259 7,200 60 Climbing Kansas City Center
01:42AM 39.9947 -88.4514 107° East 221 254 7,200 -60 Level Kansas City Center
01:44AM 39.9689 -88.3447 108° East 220 253 7,100 -120 Descending Kansas City Center
01:44AM 39.9622 -88.3133 105° East 221 254 7,100  Level Chicago Center
01:45AM 39.9450 -88.2350 106° East 223 257 7,100  Level Chicago Center
01:46AM 39.9272 -88.1594 107° East 222 255 7,100  Level Chicago Center
01:47AM 39.9025 -88.0881 114° Southeast 219 252 7,100  Level Chicago Center
01:48AM 39.8842 -88.0128 108° East 218 251 7,100  Level Chicago Center
01:49AM 39.8728 -87.9319 100° East 223 257 7,100 -60 Level Chicago Center
01:50AM 39.8561 -87.8547 106° East 224 258 7,000  Descending Chicago Center
01:51AM 39.8403 -87.7775 105° East 222 255 7,100  Climbing Chicago Center
01:52AM 39.8208 -87.7011 108° East 222 255 7,100  Level Chicago Center
01:53AM 39.8033 -87.6236 106° East 224 258 7,100  Level Chicago Center
01:54AM 39.7828 -87.5528 111° Southeast 222 255 7,100  Level Chicago Center
01:55AM 39.7647 -87.4778 107° East 221 254 7,100  Level Chicago Center
01:56AM 39.7403 -87.3856 109° East 224 258 7,200  Climbing Indianapolis Center
01:57AM 39.7189 -87.3097 110° East 224 258 7,200  Level Indianapolis Center
01:58AM 39.6986 -87.2339 109° East 223 257 7,200  Level Indianapolis Center
01:59AM 39.6789 -87.1564 108° East 223 257 7,200  Level Indianapolis Center
02:00AM 39.6614 -87.0783 106° East 223 257 7,200  Level Indianapolis Center
02:01AM 39.6481 -86.9986 102° East 224 258 7,200  Level Indianapolis Center
02:02AM 39.6331 -86.9197 104° East 224 258 7,200  Level Indianapolis Center
02:03AM 39.6069 -86.8447 114° Southeast 225 259 7,200  Level Indianapolis Center
02:04AM 39.5861 -86.7678 109° East 225 259 7,200 -60 Level Indianapolis Center
02:05AM 39.5703 -86.6881 104° East 226 260 7,100  Descending Indianapolis Center
02:06AM 39.5542 -86.6081 105° East 227 261 7,200  Climbing Indianapolis Center
02:07AM 39.5350 -86.5308 108° East 226 260 7,200  Level Indianapolis Center
02:08AM 39.5119 -86.4575 112° Southeast 223 257 7,300  Climbing Indianapolis Center
02:09AM 39.4919 -86.3803 109° East 224 258 7,300 -120 Level Indianapolis Center
02:10AM 39.4731 -86.3039 108° East 223 257 7,100 -120 Descending Indianapolis Center
02:11AM 39.4542 -86.2275 108° East 222 255 7,100  Level Indianapolis Center
02:12AM 39.4378 -86.1517 106° East 221 254 7,200 60 Climbing Indianapolis Center
02:13AM 39.4172 -86.0767 110° East 220 253 7,300  Climbing Indianapolis Center
02:14AM 39.3964 -86.0028 110° East 219 252 7,300 -180 Level Indianapolis Center
02:15AM 39.3733 -85.9281 112° Southeast 219 252 7,000 -180 Descending Indianapolis Center
02:16AM 39.3517 -85.8506 110° East 222 255 7,000 60 Level Indianapolis Center
02:17AM 39.3289 -85.7775 112° Southeast 222 255 7,200  Climbing Indianapolis Center
02:18AM 39.3092 -85.7025 109° East 222 255 7,100 -60 Descending Indianapolis Center
02:19AM 39.2953 -85.6217 102° East 227 261 7,100  Level Indianapolis Center
02:20AM 39.2769 -85.5433 107° East 226 260 7,200  Climbing Indianapolis Center
02:21AM 39.2581 -85.4675 108° East 225 259 7,200  Level Indianapolis Center
02:22AM 39.2369 -85.3925 110° East 223 257 7,300  Climbing Indianapolis Center
02:23AM 39.2172 -85.3231 110° East 220 253 7,200 -240 Descending Indianapolis Center
02:24AM 39.1869 -85.2528 119° Southeast 219 252 6,900 -420 Descending Indianapolis Center
02:25AM 39.1528 -85.1772 120° Southeast 224 258 6,400 -420 Descending Indianapolis Center
02:26AM 39.1231 -85.1103 120° Southeast 225 259 6,100 -120 Descending Indianapolis Center
02:27AM 39.0883 -85.0436 124° Southeast 224 258 6,200 -180 Climbing Indianapolis Center
02:28AM 39.0583 -84.9803 121° Southeast 218 251 5,800 -300 Descending Indianapolis Center
02:29AM 39.0294 -84.9183 121° Southeast 217 250 5,600 -1,020 Descending Indianapolis Center
02:30AM 39.0500 -84.8667 63° Northeast 203 234 4,200 -1,680 Descending Cincinnati TRACON
02:31AM 39.0500 -84.7833 90° East 194 223 2,900 -1,200 Descending Cincinnati TRACON
02:32AM 39.0500 -84.7333 90° East 149 171 1,800 -1,140 Descending Cincinnati TRACON
02:34AM 39.0333 -84.6667 113° Southeast  Level FlightAware Approximate
02:41AM 39.0488 -84.6678 113° Southeast  Level Estimated